sensor_id;sensor_type;location;lat;lon;timestamp;temperature;humidity
18392;DHT22;9322;50.932;5.318;2023-02-14T00:00:20;4.40;99.90
18392;DHT22;9322;50.932;5.318;2023-02-14T00:02:47;4.30;99.90
18392;DHT22;9322;50.932;5.318;2023-02-14T00:05:13;4.40;99.90
18392;DHT22;9322;50.932;5.318;2023-02-14T00:07:39;4.40;99.90
18392;DHT22;9322;50.932;5.318;2023-02-14T00:10:05;4.40;99.90
18392;DHT22;9322;50.932;5.318;2023-02-14T00:12:31;4.30;99.90
18392;DHT22;9322;50.932;5.318;2023-02-14T00:14:56;4.30;99.90
18392;DHT22;9322;50.932;5.318;2023-02-14T00:17:41;4.20;99.90
18392;DHT22;9322;50.932;5.318;2023-02-14T00:20:06;4.10;99.90
18392;DHT22;9322;50.932;5.318;2023-02-14T00:22:32;4.10;99.90
18392;DHT22;9322;50.932;5.318;2023-02-14T00:24:58;4.40;99.90
18392;DHT22;9322;50.932;5.318;2023-02-14T00:27:23;4.50;99.90
18392;DHT22;9322;50.932;5.318;2023-02-14T00:29:49;4.30;99.90
18392;DHT22;9322;50.932;5.318;2023-02-14T00:32:15;4.20;99.90
18392;DHT22;9322;50.932;5.318;2023-02-14T00:34:40;4.10;99.90
18392;DHT22;9322;50.932;5.318;2023-02-14T00:37:06;3.80;99.90
18392;DHT22;9322;50.932;5.318;2023-02-14T00:39:32;3.60;99.90
18392;DHT22;9322;50.932;5.318;2023-02-14T00:41:57;3.60;99.90
18392;DHT22;9322;50.932;5.318;2023-02-14T00:44:23;3.50;99.90
18392;DHT22;9322;50.932;5.318;2023-02-14T00:46:49;3.40;99.90
18392;DHT22;9322;50.932;5.318;2023-02-14T00:49:15;3.40;99.90
18392;DHT22;9322;50.932;5.318;2023-02-14T00:51:41;3.40;99.90
18392;DHT22;9322;50.932;5.318;2023-02-14T00:54:06;3.40;99.90
18392;DHT22;9322;50.932;5.318;2023-02-14T00:56:32;3.40;99.90
18392;DHT22;9322;50.932;5.318;2023-02-14T00:58:58;3.50;99.90
18392;DHT22;9322;50.932;5.318;2023-02-14T01:01:24;3.60;99.90
18392;DHT22;9322;50.932;5.318;2023-02-14T01:03:49;3.60;99.90
18392;DHT22;9322;50.932;5.318;2023-02-14T01:06:15;3.40;99.90
18392;DHT22;9322;50.932;5.318;2023-02-14T01:08:41;3.20;99.90
18392;DHT22;9322;50.932;5.318;2023-02-14T01:11:12;3.10;99.90
18392;DHT22;9322;50.932;5.318;2023-02-14T01:13:38;3.00;99.90
18392;DHT22;9322;50.932;5.318;2023-02-14T01:16:06;2.90;99.90
18392;DHT22;9322;50.932;5.318;2023-02-14T01:18:33;2.90;99.90
18392;DHT22;9322;50.932;5.318;2023-02-14T01:21:19;2.80;99.90
18392;DHT22;9322;50.932;5.318;2023-02-14T01:23:47;2.70;99.90
18392;DHT22;9322;50.932;5.318;2023-02-14T01:26:13;2.70;99.90
18392;DHT22;9322;50.932;5.318;2023-02-14T01:28:40;2.60;99.90
18392;DHT22;9322;50.932;5.318;2023-02-14T01:31:08;2.60;99.90
18392;DHT22;9322;50.932;5.318;2023-02-14T01:33:34;2.60;99.90
18392;DHT22;9322;50.932;5.318;2023-02-14T01:36:00;2.60;99.90
18392;DHT22;9322;50.932;5.318;2023-02-14T01:38:26;2.60;99.90
18392;DHT22;9322;50.932;5.318;2023-02-14T01:40:52;2.50;99.90
18392;DHT22;9322;50.932;5.318;2023-02-14T01:43:17;2.50;99.90
18392;DHT22;9322;50.932;5.318;2023-02-14T01:45:43;2.50;99.90
18392;DHT22;9322;50.932;5.318;2023-02-14T01:48:09;2.50;99.90
18392;DHT22;9322;50.932;5.318;2023-02-14T01:50:37;2.50;99.90
18392;DHT22;9322;50.932;5.318;2023-02-14T01:53:25;2.50;99.90
18392;DHT22;9322;50.932;5.318;2023-02-14T01:56:02;2.50;99.90
18392;DHT22;9322;50.932;5.318;2023-02-14T01:58:31;2.50;99.90
18392;DHT22;9322;50.932;5.318;2023-02-14T02:01:01;2.50;99.90
18392;DHT22;9322;50.932;5.318;2023-02-14T02:03:32;2.50;99.90
18392;DHT22;9322;50.932;5.318;2023-02-14T02:08:39;2.50;99.90
18392;DHT22;9322;50.932;5.318;2023-02-14T02:11:06;2.40;99.90
18392;DHT22;9322;50.932;5.318;2023-02-14T02:13:31;2.40;99.90
18392;DHT22;9322;50.932;5.318;2023-02-14T02:16:27;2.40;99.90
18392;DHT22;9322;50.932;5.318;2023-02-14T02:42:23;2.20;99.90
18392;DHT22;9322;50.932;5.318;2023-02-14T02:50:41;2.40;99.90
18392;DHT22;9322;50.932;5.318;2023-02-14T02:53:43;2.40;99.90
18392;DHT22;9322;50.932;5.318;2023-02-14T02:59:12;2.50;99.90
18392;DHT22;9322;50.932;5.318;2023-02-14T03:01:46;2.40;99.90
18392;DHT22;9322;50.932;5.318;2023-02-14T03:04:15;2.60;99.90
18392;DHT22;9322;50.932;5.318;2023-02-14T03:07:20;2.60;99.90
18392;DHT22;9322;50.932;5.318;2023-02-14T03:18:37;2.20;99.90
18392;DHT22;9322;50.932;5.318;2023-02-14T03:23:38;2.00;99.90
18392;DHT22;9322;50.932;5.318;2023-02-14T03:29:10;2.00;99.90
18392;DHT22;9322;50.932;5.318;2023-02-14T03:34:16;2.00;99.90
18392;DHT22;9322;50.932;5.318;2023-02-14T03:37:03;2.10;99.90
18392;DHT22;9322;50.932;5.318;2023-02-14T03:39:44;2.00;99.90
18392;DHT22;9322;50.932;5.318;2023-02-14T03:42:26;2.00;99.90
18392;DHT22;9322;50.932;5.318;2023-02-14T03:44:54;2.00;99.90
18392;DHT22;9322;50.932;5.318;2023-02-14T03:47:23;2.00;99.90
18392;DHT22;9322;50.932;5.318;2023-02-14T03:49:54;2.00;99.90
18392;DHT22;9322;50.932;5.318;2023-02-14T03:52:22;2.00;99.90
18392;DHT22;9322;50.932;5.318;2023-02-14T03:54:52;2.10;99.90
18392;DHT22;9322;50.932;5.318;2023-02-14T03:57:24;2.10;99.90
18392;DHT22;9322;50.932;5.318;2023-02-14T03:59:50;2.20;99.90
18392;DHT22;9322;50.932;5.318;2023-02-14T04:02:16;2.20;99.90
18392;DHT22;9322;50.932;5.318;2023-02-14T04:04:47;2.00;99.90
18392;DHT22;9322;50.932;5.318;2023-02-14T04:07:18;2.00;99.90
18392;DHT22;9322;50.932;5.318;2023-02-14T04:09:45;2.10;99.90
18392;DHT22;9322;50.932;5.318;2023-02-14T04:12:11;1.90;99.90
18392;DHT22;9322;50.932;5.318;2023-02-14T04:14:37;1.80;99.90
18392;DHT22;9322;50.932;5.318;2023-02-14T04:17:02;1.70;99.90
18392;DHT22;9322;50.932;5.318;2023-02-14T04:19:47;1.80;99.90
18392;DHT22;9322;50.932;5.318;2023-02-14T04:22:12;2.00;99.90
18392;DHT22;9322;50.932;5.318;2023-02-14T04:24:38;2.20;99.90
18392;DHT22;9322;50.932;5.318;2023-02-14T04:27:04;2.20;99.90
18392;DHT22;9322;50.932;5.318;2023-02-14T04:32:15;2.30;99.90
18392;DHT22;9322;50.932;5.318;2023-02-14T04:34:42;2.30;99.90
18392;DHT22;9322;50.932;5.318;2023-02-14T04:37:08;2.40;99.90
18392;DHT22;9322;50.932;5.318;2023-02-14T04:39:35;2.50;99.90
18392;DHT22;9322;50.932;5.318;2023-02-14T04:42:01;2.60;99.90
18392;DHT22;9322;50.932;5.318;2023-02-14T04:44:27;2.50;99.90
18392;DHT22;9322;50.932;5.318;2023-02-14T04:46:52;2.50;99.90
18392;DHT22;9322;50.932;5.318;2023-02-14T04:49:18;2.30;99.90
18392;DHT22;9322;50.932;5.318;2023-02-14T04:51:44;2.20;99.90
18392;DHT22;9322;50.932;5.318;2023-02-14T04:54:10;2.00;99.90
18392;DHT22;9322;50.932;5.318;2023-02-14T04:56:36;1.80;99.90
18392;DHT22;9322;50.932;5.318;2023-02-14T04:59:02;1.70;99.90
18392;DHT22;9322;50.932;5.318;2023-02-14T05:01:27;1.80;99.90
18392;DHT22;9322;50.932;5.318;2023-02-14T05:03:53;1.80;99.90
18392;DHT22;9322;50.932;5.318;2023-02-14T05:06:18;1.80;99.90
18392;DHT22;9322;50.932;5.318;2023-02-14T05:08:44;1.80;99.90
18392;DHT22;9322;50.932;5.318;2023-02-14T05:11:10;1.90;99.90
18392;DHT22;9322;50.932;5.318;2023-02-14T05:13:35;1.90;99.90
18392;DHT22;9322;50.932;5.318;2023-02-14T05:16:01;1.90;99.90
18392;DHT22;9322;50.932;5.318;2023-02-14T05:18:27;2.10;99.90
18392;DHT22;9322;50.932;5.318;2023-02-14T05:20:53;2.20;99.90
18392;DHT22;9322;50.932;5.318;2023-02-14T05:23:20;2.20;99.90
18392;DHT22;9322;50.932;5.318;2023-02-14T05:25:50;2.00;99.90
18392;DHT22;9322;50.932;5.318;2023-02-14T05:28:17;1.90;99.90
18392;DHT22;9322;50.932;5.318;2023-02-14T05:30:42;1.90;99.90
18392;DHT22;9322;50.932;5.318;2023-02-14T05:33:08;2.00;99.90
18392;DHT22;9322;50.932;5.318;2023-02-14T05:35:33;2.00;99.90
18392;DHT22;9322;50.932;5.318;2023-02-14T05:37:59;2.00;99.90
18392;DHT22;9322;50.932;5.318;2023-02-14T05:40:25;2.00;99.90
18392;DHT22;9322;50.932;5.318;2023-02-14T05:42:52;1.80;99.90
18392;DHT22;9322;50.932;5.318;2023-02-14T05:45:18;1.80;99.90
18392;DHT22;9322;50.932;5.318;2023-02-14T05:47:44;1.80;99.90
18392;DHT22;9322;50.932;5.318;2023-02-14T05:50:11;1.70;99.90
18392;DHT22;9322;50.932;5.318;2023-02-14T05:52:37;1.70;99.90
18392;DHT22;9322;50.932;5.318;2023-02-14T05:55:03;1.70;99.90
18392;DHT22;9322;50.932;5.318;2023-02-14T05:57:29;1.80;99.90
18392;DHT22;9322;50.932;5.318;2023-02-14T05:59:55;1.90;99.90
18392;DHT22;9322;50.932;5.318;2023-02-14T06:02:20;1.90;99.90
18392;DHT22;9322;50.932;5.318;2023-02-14T06:04:46;1.80;99.90
18392;DHT22;9322;50.932;5.318;2023-02-14T06:07:11;1.80;99.90
18392;DHT22;9322;50.932;5.318;2023-02-14T06:09:37;1.80;99.90
18392;DHT22;9322;50.932;5.318;2023-02-14T06:12:03;1.70;99.90
18392;DHT22;9322;50.932;5.318;2023-02-14T06:14:29;1.70;99.90
18392;DHT22;9322;50.932;5.318;2023-02-14T06:16:54;1.70;99.90
18392;DHT22;9322;50.932;5.318;2023-02-14T06:19:20;1.60;99.90
18392;DHT22;9322;50.932;5.318;2023-02-14T06:21:47;1.50;99.90
18392;DHT22;9322;50.932;5.318;2023-02-14T06:24:13;1.50;99.90
18392;DHT22;9322;50.932;5.318;2023-02-14T06:26:38;1.50;99.90
18392;DHT22;9322;50.932;5.318;2023-02-14T06:29:04;1.60;99.90
18392;DHT22;9322;50.932;5.318;2023-02-14T06:31:30;1.50;99.90
18392;DHT22;9322;50.932;5.318;2023-02-14T06:33:56;1.40;99.90
18392;DHT22;9322;50.932;5.318;2023-02-14T06:36:22;1.30;99.90
18392;DHT22;9322;50.932;5.318;2023-02-14T06:38:48;1.20;99.90
18392;DHT22;9322;50.932;5.318;2023-02-14T06:41:15;1.20;99.90
18392;DHT22;9322;50.932;5.318;2023-02-14T06:43:45;1.10;99.90
18392;DHT22;9322;50.932;5.318;2023-02-14T06:46:14;1.10;99.90
18392;DHT22;9322;50.932;5.318;2023-02-14T06:48:39;1.10;99.90
18392;DHT22;9322;50.932;5.318;2023-02-14T06:51:05;1.00;99.90
18392;DHT22;9322;50.932;5.318;2023-02-14T06:53:31;1.00;99.90
18392;DHT22;9322;50.932;5.318;2023-02-14T06:55:57;1.10;99.90
18392;DHT22;9322;50.932;5.318;2023-02-14T06:58:22;1.10;99.90
18392;DHT22;9322;50.932;5.318;2023-02-14T07:00:48;1.10;99.90
18392;DHT22;9322;50.932;5.318;2023-02-14T07:03:14;1.10;99.90
18392;DHT22;9322;50.932;5.318;2023-02-14T07:05:39;1.10;99.90
18392;DHT22;9322;50.932;5.318;2023-02-14T07:08:06;1.10;99.90
18392;DHT22;9322;50.932;5.318;2023-02-14T07:10:33;1.30;99.90
18392;DHT22;9322;50.932;5.318;2023-02-14T07:12:59;1.30;99.90
18392;DHT22;9322;50.932;5.318;2023-02-14T07:15:25;1.50;99.90
18392;DHT22;9322;50.932;5.318;2023-02-14T07:17:51;1.70;99.90
18392;DHT22;9322;50.932;5.318;2023-02-14T07:20:17;1.80;99.90
18392;DHT22;9322;50.932;5.318;2023-02-14T07:22:43;1.90;99.90
18392;DHT22;9322;50.932;5.318;2023-02-14T07:25:09;2.00;99.90
18392;DHT22;9322;50.932;5.318;2023-02-14T07:27:35;2.20;99.90
18392;DHT22;9322;50.932;5.318;2023-02-14T07:30:01;2.30;99.90
18392;DHT22;9322;50.932;5.318;2023-02-14T07:32:27;2.50;99.90
18392;DHT22;9322;50.932;5.318;2023-02-14T07:34:52;2.60;99.90
18392;DHT22;9322;50.932;5.318;2023-02-14T07:37:18;2.60;99.90
18392;DHT22;9322;50.932;5.318;2023-02-14T07:39:44;2.70;99.90
18392;DHT22;9322;50.932;5.318;2023-02-14T07:42:10;2.70;99.90
18392;DHT22;9322;50.932;5.318;2023-02-14T07:44:36;2.90;99.90
18392;DHT22;9322;50.932;5.318;2023-02-14T07:47:06;3.10;99.90
18392;DHT22;9322;50.932;5.318;2023-02-14T07:49:32;3.80;99.90
18392;DHT22;9322;50.932;5.318;2023-02-14T07:51:58;5.20;99.90
18392;DHT22;9322;50.932;5.318;2023-02-14T07:54:24;6.60;99.90
18392;DHT22;9322;50.932;5.318;2023-02-14T07:56:49;8.00;99.90
18392;DHT22;9322;50.932;5.318;2023-02-14T07:59:15;9.00;1.40
18392;DHT22;9322;50.932;5.318;2023-02-14T08:01:41;10.20;1.40
18392;DHT22;9322;50.932;5.318;2023-02-14T08:04:07;11.70;1.40
18392;DHT22;9322;50.932;5.318;2023-02-14T08:06:33;12.50;1.40
18392;DHT22;9322;50.932;5.318;2023-02-14T08:08:59;13.60;1.40
18392;DHT22;9322;50.932;5.318;2023-02-14T08:11:24;14.40;1.40
18392;DHT22;9322;50.932;5.318;2023-02-14T08:14:09;15.00;1.40
18392;DHT22;9322;50.932;5.318;2023-02-14T08:16:34;15.40;1.40
18392;DHT22;9322;50.932;5.318;2023-02-14T08:19:02;16.00;1.40
18392;DHT22;9322;50.932;5.318;2023-02-14T08:21:28;16.80;1.40
18392;DHT22;9322;50.932;5.318;2023-02-14T08:23:54;16.90;1.40
18392;DHT22;9322;50.932;5.318;2023-02-14T08:26:20;17.50;1.40
18392;DHT22;9322;50.932;5.318;2023-02-14T08:28:46;17.90;1.40
18392;DHT22;9322;50.932;5.318;2023-02-14T08:31:21;18.10;1.40
18392;DHT22;9322;50.932;5.318;2023-02-14T08:33:48;18.40;1.40
18392;DHT22;9322;50.932;5.318;2023-02-14T08:36:14;18.90;1.40
18392;DHT22;9322;50.932;5.318;2023-02-14T08:38:42;19.60;1.40
18392;DHT22;9322;50.932;5.318;2023-02-14T08:41:10;20.00;1.40
18392;DHT22;9322;50.932;5.318;2023-02-14T08:43:36;20.60;1.40
18392;DHT22;9322;50.932;5.318;2023-02-14T08:46:02;21.00;1.40
18392;DHT22;9322;50.932;5.318;2023-02-14T08:48:28;20.70;1.40
18392;DHT22;9322;50.932;5.318;2023-02-14T08:50:53;20.20;1.40
18392;DHT22;9322;50.932;5.318;2023-02-14T08:53:19;19.30;1.40
18392;DHT22;9322;50.932;5.318;2023-02-14T08:55:47;17.50;1.40
18392;DHT22;9322;50.932;5.318;2023-02-14T08:58:13;15.80;1.40
18392;DHT22;9322;50.932;5.318;2023-02-14T09:00:38;14.60;1.40
18392;DHT22;9322;50.932;5.318;2023-02-14T09:03:04;13.90;1.40
18392;DHT22;9322;50.932;5.318;2023-02-14T09:05:30;13.30;1.40
18392;DHT22;9322;50.932;5.318;2023-02-14T09:07:56;13.80;1.40
18392;DHT22;9322;50.932;5.318;2023-02-14T09:10:22;14.00;1.40
18392;DHT22;9322;50.932;5.318;2023-02-14T09:12:48;14.10;1.40
18392;DHT22;9322;50.932;5.318;2023-02-14T09:15:14;13.50;1.40
18392;DHT22;9322;50.932;5.318;2023-02-14T09:17:39;13.30;1.40
18392;DHT22;9322;50.932;5.318;2023-02-14T09:20:07;13.20;1.40
18392;DHT22;9322;50.932;5.318;2023-02-14T09:22:33;13.80;1.40
18392;DHT22;9322;50.932;5.318;2023-02-14T09:24:59;14.30;1.40
18392;DHT22;9322;50.932;5.318;2023-02-14T09:27:25;13.80;1.40
18392;DHT22;9322;50.932;5.318;2023-02-14T09:29:51;13.70;1.40
18392;DHT22;9322;50.932;5.318;2023-02-14T09:32:17;14.50;1.40
18392;DHT22;9322;50.932;5.318;2023-02-14T09:34:42;13.10;1.40
18392;DHT22;9322;50.932;5.318;2023-02-14T09:37:11;13.20;1.40
18392;DHT22;9322;50.932;5.318;2023-02-14T09:39:56;13.70;1.40
18392;DHT22;9322;50.932;5.318;2023-02-14T09:42:48;15.70;1.40
18392;DHT22;9322;50.932;5.318;2023-02-14T09:45:23;16.90;1.40
18392;DHT22;9322;50.932;5.318;2023-02-14T09:53:02;18.80;1.40
18392;DHT22;9322;50.932;5.318;2023-02-14T09:55:42;19.70;1.40
18392;DHT22;9322;50.932;5.318;2023-02-14T09:58:40;20.90;1.40
18392;DHT22;9322;50.932;5.318;2023-02-14T10:01:28;22.00;1.40
18392;DHT22;9322;50.932;5.318;2023-02-14T10:07:29;22.80;1.40
18392;DHT22;9322;50.932;5.318;2023-02-14T10:12:33;24.30;1.40
18392;DHT22;9322;50.932;5.318;2023-02-14T10:15:03;24.20;1.40
18392;DHT22;9322;50.932;5.318;2023-02-14T10:17:38;24.00;1.40
18392;DHT22;9322;50.932;5.318;2023-02-14T10:20:21;24.50;1.40
18392;DHT22;9322;50.932;5.318;2023-02-14T10:26:04;23.80;1.40
18392;DHT22;9322;50.932;5.318;2023-02-14T10:28:36;23.90;1.40
18392;DHT22;9322;50.932;5.318;2023-02-14T10:33:54;23.30;1.40
18392;DHT22;9322;50.932;5.318;2023-02-14T10:36:38;23.60;1.40
18392;DHT22;9322;50.932;5.318;2023-02-14T10:39:25;23.70;1.40
18392;DHT22;9322;50.932;5.318;2023-02-14T10:55:48;24.90;1.40
18392;DHT22;9322;50.932;5.318;2023-02-14T10:58:17;25.10;1.40
18392;DHT22;9322;50.932;5.318;2023-02-14T11:03:31;24.10;1.40
18392;DHT22;9322;50.932;5.318;2023-02-14T11:05:57;24.30;1.40
18392;DHT22;9322;50.932;5.318;2023-02-14T11:08:30;25.10;1.40
18392;DHT22;9322;50.932;5.318;2023-02-14T11:13:39;25.10;1.40
18392;DHT22;9322;50.932;5.318;2023-02-14T11:16:11;24.50;1.40
18392;DHT22;9322;50.932;5.318;2023-02-14T11:18:38;25.00;1.40
18392;DHT22;9322;50.932;5.318;2023-02-14T11:23:39;26.10;1.40
18392;DHT22;9322;50.932;5.318;2023-02-14T11:26:09;26.70;1.40
18392;DHT22;9322;50.932;5.318;2023-02-14T11:28:42;26.90;1.40
18392;DHT22;9322;50.932;5.318;2023-02-14T11:31:10;26.90;1.40
18392;DHT22;9322;50.932;5.318;2023-02-14T11:33:41;26.90;1.40
18392;DHT22;9322;50.932;5.318;2023-02-14T11:36:14;27.40;1.40
18392;DHT22;9322;50.932;5.318;2023-02-14T11:38:42;27.50;1.40
18392;DHT22;9322;50.932;5.318;2023-02-14T11:41:12;26.40;1.40
18392;DHT22;9322;50.932;5.318;2023-02-14T11:43:41;25.50;1.40
18392;DHT22;9322;50.932;5.318;2023-02-14T11:49:03;25.60;1.40
18392;DHT22;9322;50.932;5.318;2023-02-14T11:51:37;26.80;1.40
18392;DHT22;9322;50.932;5.318;2023-02-14T11:54:12;25.30;1.40
18392;DHT22;9322;50.932;5.318;2023-02-14T11:56:50;26.00;1.40
18392;DHT22;9322;50.932;5.318;2023-02-14T12:04:48;27.80;1.40
18392;DHT22;9322;50.932;5.318;2023-02-14T12:09:42;28.70;1.40
18392;DHT22;9322;50.932;5.318;2023-02-14T12:12:21;26.60;1.40
18392;DHT22;9322;50.932;5.318;2023-02-14T12:14:48;25.30;1.40
18392;DHT22;9322;50.932;5.318;2023-02-14T12:17:33;24.30;1.40
18392;DHT22;9322;50.932;5.318;2023-02-14T12:22:39;24.60;1.40
18392;DHT22;9322;50.932;5.318;2023-02-14T12:25:16;25.30;1.40
18392;DHT22;9322;50.932;5.318;2023-02-14T12:28:03;24.80;1.40
18392;DHT22;9322;50.932;5.318;2023-02-14T12:30:33;24.40;1.40
18392;DHT22;9322;50.932;5.318;2023-02-14T12:32:59;24.60;1.40
18392;DHT22;9322;50.932;5.318;2023-02-14T12:43:44;24.70;1.40
18392;DHT22;9322;50.932;5.318;2023-02-14T13:00:00;18.10;1.40
18392;DHT22;9322;50.932;5.318;2023-02-14T13:11:15;17.00;1.40
18392;DHT22;9322;50.932;5.318;2023-02-14T13:17:02;16.20;1.40
18392;DHT22;9322;50.932;5.318;2023-02-14T13:22:14;16.30;1.40
18392;DHT22;9322;50.932;5.318;2023-02-14T13:24:45;16.20;1.40
18392;DHT22;9322;50.932;5.318;2023-02-14T13:27:23;16.10;1.40
18392;DHT22;9322;50.932;5.318;2023-02-14T13:29:53;15.90;1.40
18392;DHT22;9322;50.932;5.318;2023-02-14T13:32:23;16.00;1.40
18392;DHT22;9322;50.932;5.318;2023-02-14T13:34:50;16.00;1.40
18392;DHT22;9322;50.932;5.318;2023-02-14T13:37:21;15.50;1.40
18392;DHT22;9322;50.932;5.318;2023-02-14T13:39:54;15.30;1.40
18392;DHT22;9322;50.932;5.318;2023-02-14T13:48:12;15.60;1.40
18392;DHT22;9322;50.932;5.318;2023-02-14T13:50:50;15.60;1.40
18392;DHT22;9322;50.932;5.318;2023-02-14T13:53:39;15.70;1.40
18392;DHT22;9322;50.932;5.318;2023-02-14T13:56:29;15.60;1.40
18392;DHT22;9322;50.932;5.318;2023-02-14T13:58:58;15.70;1.40
18392;DHT22;9322;50.932;5.318;2023-02-14T14:01:39;15.60;1.40
18392;DHT22;9322;50.932;5.318;2023-02-14T14:17:33;15.30;1.40
18392;DHT22;9322;50.932;5.318;2023-02-14T14:20:00;15.30;1.40
18392;DHT22;9322;50.932;5.318;2023-02-14T14:22:29;15.30;1.40
18392;DHT22;9322;50.932;5.318;2023-02-14T14:25:00;15.20;1.40
18392;DHT22;9322;50.932;5.318;2023-02-14T14:27:33;15.20;1.40
18392;DHT22;9322;50.932;5.318;2023-02-14T14:30:17;15.30;1.40
18392;DHT22;9322;50.932;5.318;2023-02-14T14:32:44;15.30;1.40
18392;DHT22;9322;50.932;5.318;2023-02-14T14:35:22;15.20;1.40
18392;DHT22;9322;50.932;5.318;2023-02-14T14:37:50;15.10;1.40
18392;DHT22;9322;50.932;5.318;2023-02-14T14:42:49;15.10;1.40
18392;DHT22;9322;50.932;5.318;2023-02-14T14:45:24;15.00;1.40
18392;DHT22;9322;50.932;5.318;2023-02-14T14:47:53;14.90;1.40
18392;DHT22;9322;50.932;5.318;2023-02-14T14:50:31;14.80;1.40
18392;DHT22;9322;50.932;5.318;2023-02-14T14:53:03;14.70;1.40
18392;DHT22;9322;50.932;5.318;2023-02-14T14:55:32;14.70;1.40
18392;DHT22;9322;50.932;5.318;2023-02-14T14:58:01;14.70;1.40
18392;DHT22;9322;50.932;5.318;2023-02-14T15:00:33;14.70;1.40
18392;DHT22;9322;50.932;5.318;2023-02-14T15:08:26;14.60;1.40
18392;DHT22;9322;50.932;5.318;2023-02-14T15:10:56;14.60;1.40
18392;DHT22;9322;50.932;5.318;2023-02-14T15:13:46;14.50;1.40
18392;DHT22;9322;50.932;5.318;2023-02-14T15:17:01;14.60;1.40
18392;DHT22;9322;50.932;5.318;2023-02-14T15:19:37;14.40;1.40
18392;DHT22;9322;50.932;5.318;2023-02-14T15:22:16;14.20;1.40
18392;DHT22;9322;50.932;5.318;2023-02-14T15:24:43;13.90;1.40
18392;DHT22;9322;50.932;5.318;2023-02-14T15:27:21;13.90;1.40
18392;DHT22;9322;50.932;5.318;2023-02-14T15:30:03;14.00;1.40
18392;DHT22;9322;50.932;5.318;2023-02-14T15:32:31;14.00;1.40
18392;DHT22;9322;50.932;5.318;2023-02-14T15:35:01;14.10;1.40
18392;DHT22;9322;50.932;5.318;2023-02-14T15:37:28;14.20;1.40
18392;DHT22;9322;50.932;5.318;2023-02-14T15:39:54;14.10;1.40
18392;DHT22;9322;50.932;5.318;2023-02-14T15:45:14;14.00;1.40
18392;DHT22;9322;50.932;5.318;2023-02-14T15:47:41;14.00;1.40
18392;DHT22;9322;50.932;5.318;2023-02-14T15:50:14;14.10;1.40
18392;DHT22;9322;50.932;5.318;2023-02-14T15:52:40;14.00;1.40
18392;DHT22;9322;50.932;5.318;2023-02-14T15:55:10;14.00;1.40
18392;DHT22;9322;50.932;5.318;2023-02-14T15:57:36;13.80;1.40
18392;DHT22;9322;50.932;5.318;2023-02-14T16:00:05;13.70;1.40
18392;DHT22;9322;50.932;5.318;2023-02-14T16:02:41;13.60;1.40
18392;DHT22;9322;50.932;5.318;2023-02-14T16:05:17;13.50;1.40
18392;DHT22;9322;50.932;5.318;2023-02-14T16:08:06;13.40;1.40
18392;DHT22;9322;50.932;5.318;2023-02-14T16:10:35;13.30;1.40
18392;DHT22;9322;50.932;5.318;2023-02-14T16:13:15;13.20;1.40
18392;DHT22;9322;50.932;5.318;2023-02-14T16:16:01;13.20;1.40
18392;DHT22;9322;50.932;5.318;2023-02-14T16:21:20;13.00;1.40
18392;DHT22;9322;50.932;5.318;2023-02-14T16:26:36;12.70;1.40
18392;DHT22;9322;50.932;5.318;2023-02-14T16:29:04;12.70;1.40
18392;DHT22;9322;50.932;5.318;2023-02-14T16:31:30;12.60;1.40
18392;DHT22;9322;50.932;5.318;2023-02-14T16:33:56;12.40;1.40
18392;DHT22;9322;50.932;5.318;2023-02-14T16:36:32;12.30;1.40
18392;DHT22;9322;50.932;5.318;2023-02-14T16:39:01;12.20;1.40
18392;DHT22;9322;50.932;5.318;2023-02-14T16:41:28;12.10;1.40
18392;DHT22;9322;50.932;5.318;2023-02-14T16:43:55;12.00;1.40
18392;DHT22;9322;50.932;5.318;2023-02-14T16:46:24;11.80;1.40
18392;DHT22;9322;50.932;5.318;2023-02-14T16:48:51;11.80;1.40
18392;DHT22;9322;50.932;5.318;2023-02-14T16:51:37;11.70;1.40
18392;DHT22;9322;50.932;5.318;2023-02-14T16:54:10;11.60;1.40
18392;DHT22;9322;50.932;5.318;2023-02-14T16:57:06;11.60;1.40
18392;DHT22;9322;50.932;5.318;2023-02-14T16:59:34;11.40;1.40
18392;DHT22;9322;50.932;5.318;2023-02-14T17:02:00;11.30;1.40
18392;DHT22;9322;50.932;5.318;2023-02-14T17:04:26;11.30;1.40
18392;DHT22;9322;50.932;5.318;2023-02-14T17:06:53;11.30;1.40
18392;DHT22;9322;50.932;5.318;2023-02-14T17:09:24;11.20;1.40
18392;DHT22;9322;50.932;5.318;2023-02-14T17:11:55;11.20;1.40
18392;DHT22;9322;50.932;5.318;2023-02-14T17:14:25;11.00;1.40
18392;DHT22;9322;50.932;5.318;2023-02-14T17:16:53;11.00;1.40
18392;DHT22;9322;50.932;5.318;2023-02-14T17:19:20;10.90;1.40
18392;DHT22;9322;50.932;5.318;2023-02-14T17:21:45;11.00;1.40
18392;DHT22;9322;50.932;5.318;2023-02-14T17:24:11;10.90;1.40
18392;DHT22;9322;50.932;5.318;2023-02-14T17:26:37;10.90;1.40
18392;DHT22;9322;50.932;5.318;2023-02-14T17:29:03;10.70;1.40
18392;DHT22;9322;50.932;5.318;2023-02-14T17:31:30;10.60;1.40
18392;DHT22;9322;50.932;5.318;2023-02-14T17:33:55;10.30;1.40
18392;DHT22;9322;50.932;5.318;2023-02-14T17:36:21;10.20;1.40
18392;DHT22;9322;50.932;5.318;2023-02-14T17:38:51;10.50;1.40
18392;DHT22;9322;50.932;5.318;2023-02-14T17:41:21;10.30;1.40
18392;DHT22;9322;50.932;5.318;2023-02-14T17:43:48;10.20;1.40
18392;DHT22;9322;50.932;5.318;2023-02-14T17:46:15;10.10;1.40
18392;DHT22;9322;50.932;5.318;2023-02-14T17:48:42;10.00;1.40
18392;DHT22;9322;50.932;5.318;2023-02-14T17:51:12;9.90;1.40
18392;DHT22;9322;50.932;5.318;2023-02-14T17:53:38;9.80;1.40
18392;DHT22;9322;50.932;5.318;2023-02-14T17:56:17;9.70;1.40
18392;DHT22;9322;50.932;5.318;2023-02-14T17:58:45;9.60;1.40
18392;DHT22;9322;50.932;5.318;2023-02-14T18:01:16;9.60;1.40
18392;DHT22;9322;50.932;5.318;2023-02-14T18:03:42;9.50;1.40
18392;DHT22;9322;50.932;5.318;2023-02-14T18:06:09;9.50;1.40
18392;DHT22;9322;50.932;5.318;2023-02-14T18:08:37;9.40;1.40
18392;DHT22;9322;50.932;5.318;2023-02-14T18:11:07;9.30;1.40
18392;DHT22;9322;50.932;5.318;2023-02-14T18:13:33;9.30;1.40
18392;DHT22;9322;50.932;5.318;2023-02-14T18:16:04;9.30;1.40
18392;DHT22;9322;50.932;5.318;2023-02-14T18:18:30;9.20;1.40
18392;DHT22;9322;50.932;5.318;2023-02-14T18:20:58;9.10;1.40
18392;DHT22;9322;50.932;5.318;2023-02-14T18:23:24;9.00;1.40
18392;DHT22;9322;50.932;5.318;2023-02-14T18:25:51;8.80;1.40
18392;DHT22;9322;50.932;5.318;2023-02-14T18:28:18;8.60;1.40
18392;DHT22;9322;50.932;5.318;2023-02-14T18:30:44;8.60;1.40
18392;DHT22;9322;50.932;5.318;2023-02-14T18:33:10;8.60;1.40
18392;DHT22;9322;50.932;5.318;2023-02-14T18:35:36;8.60;1.40
18392;DHT22;9322;50.932;5.318;2023-02-14T18:38:03;8.50;1.40
18392;DHT22;9322;50.932;5.318;2023-02-14T18:40:30;8.40;1.40
18392;DHT22;9322;50.932;5.318;2023-02-14T18:42:56;8.50;1.40
18392;DHT22;9322;50.932;5.318;2023-02-14T18:45:21;8.40;1.40
18392;DHT22;9322;50.932;5.318;2023-02-14T18:47:47;8.40;1.40
18392;DHT22;9322;50.932;5.318;2023-02-14T18:50:13;8.30;99.90
18392;DHT22;9322;50.932;5.318;2023-02-14T18:52:38;8.10;99.90
18392;DHT22;9322;50.932;5.318;2023-02-14T18:55:04;8.10;99.90
18392;DHT22;9322;50.932;5.318;2023-02-14T18:57:32;8.00;99.90
18392;DHT22;9322;50.932;5.318;2023-02-14T18:59:58;7.90;99.90
18392;DHT22;9322;50.932;5.318;2023-02-14T19:02:25;7.90;99.90
18392;DHT22;9322;50.932;5.318;2023-02-14T19:04:50;7.90;99.90
18392;DHT22;9322;50.932;5.318;2023-02-14T19:07:16;7.80;99.90
18392;DHT22;9322;50.932;5.318;2023-02-14T19:09:41;7.70;99.90
18392;DHT22;9322;50.932;5.318;2023-02-14T19:12:10;7.60;99.90
18392;DHT22;9322;50.932;5.318;2023-02-14T19:14:36;7.50;99.90